ExpreSS Skopelitis — SW3130 — position and weather

sailwx.info

Track history (hours):
 
Tides and Currents Weather Stations Pressure Air Temp Water Temp Dewpoint Dewpoint Depression Visibility Wind Speed Wind Dir Waves Ship Positions

ExpreSS Skopelitis

Last reported at 2014-Jul-28 17:23 UTC. Time now 2014-Jul-28 18:40 UTC.
Position N 36°50' E 025°51'.

Length 45 m; draft 2.4 m.

Type: Passenger vessel. MMSI: 237029400.

Date/timePositionNaut miles runAvg speedWind from/ knotsBaromVisibWave heightAir tempDewpointWater temp
2014-Jul-28 17:23N 36°50' E 025°51'7 6.7
2014-Jul-28 16:23N 36°55' E 025°57'1012.6
2014-Jul-28 15:33N 37°03' E 025°50'6 5.7
2014-Jul-28 14:33N 37°01' E 025°43'1010.1
2014-Jul-28 13:33N 36°55' E 025°33'5 5.0
2014-Jul-28 12:33N 36°52' E 025°28'1111.5
2014-Jul-28 11:33N 37°02' E 025°21'5 4.8
2014-Jul-28 10:33N 37°06' E 025°22'0 0.0
2014-Jul-28 09:33N 37°06' E 025°22'5 5.1
2014-Jul-28 08:33N 37°01' E 025°21'1110.9
2014-Jul-28 07:33N 36°52' E 025°28'7 7.4
2014-Jul-28 06:33N 36°56' E 025°36'1211.9
2014-Jul-28 05:33N 37°04' E 025°46'8 8.2
2014-Jul-28 04:33N 36°59' E 025°54'7 6.3
2014-Jul-28 03:30N 36°52' E 025°54'5 0.4
2014-Jul-27 14:33N 36°51' E 025°47'1110.9
2014-Jul-27 13:33N 36°55' E 025°35'1211.6
2014-Jul-27 12:33N 36°50' E 025°22'8 8.1
2014-Jul-27 11:33N 36°43' E 025°16'1110.5
2014-Jul-27 10:33N 36°33' E 025°20'1111.0
2014-Jul-27 09:32N 36°23' E 025°26'9 8.7
2014-Jul-27 08:33N 36°31' E 025°23'1212.2
2014-Jul-27 07:33N 36°42' E 025°30'1212.3
2014-Jul-27 06:33N 36°54' E 025°35'8 8.5
2014-Jul-27 05:33N 36°52' E 025°46'4 0.4
2014-Jul-26 17:33N 36°52' E 025°51'5 5.3
2014-Jul-26 16:33N 36°56' E 025°55'1211.3
2014-Jul-26 15:30N 37°06' E 025°48'8 8.4
2014-Jul-26 14:33N 36°59' E 025°42'9 8.9
2014-Jul-26 13:33N 36°54' E 025°33'4 4.0
2014-Jul-26 12:33N 36°53' E 025°28'1211.9
2014-Jul-26 11:33N 37°03' E 025°20'4 3.9
2014-Jul-26 10:33N 37°06' E 025°22'0 0.0
2014-Jul-26 09:33N 37°06' E 025°22'6 5.9
2014-Jul-26 08:33N 37°00' E 025°22'1010.2
2014-Jul-26 07:33N 36°52' E 025°29'7 7.2
2014-Jul-26 06:33N 36°56' E 025°37'1312.6
2014-Jul-26 05:33N 37°05' E 025°47'9 9.1
2014-Jul-26 04:33N 36°58' E 025°54'6 6.1
2014-Jul-26 03:33N 36°52' E 025°54'6 0.5
2014-Jul-25 14:33N 36°51' E 025°46'10 9.5
2014-Jul-25 13:33N 36°55' E 025°35'7 6.6
2014-Jul-25 12:32N 36°52' E 025°28'1111.0
2014-Jul-25 11:33N 37°01' E 025°21'5 5.4
2014-Jul-25 10:33N 37°06' E 025°22'0 0.0
2014-Jul-25 09:33N 37°06' E 025°22'0 0.0
2014-Jul-25 08:33N 37°06' E 025°22'3 3.2
2014-Jul-25 07:33N 37°04' E 025°20'1211.8
2014-Jul-25 06:33N 36°53' E 025°28'5 4.6
2014-Jul-25 05:33N 36°55' E 025°33'1010.0
2014-Jul-25 04:33N 36°52' E 025°45'1 0.1
2014-Jul-24 14:33N 36°52' E 025°46'9 9.5
2014-Jul-24 13:33N 36°55' E 025°35'7 6.7
2014-Jul-24 12:33N 36°52' E 025°28'1111.2
2014-Jul-24 11:33N 37°01' E 025°21'5 5.1
2014-Jul-24 10:33N 37°06' E 025°22'0 0.0
2014-Jul-24 09:33N 37°06' E 025°22'0 0.0
2014-Jul-24 08:33N 37°06' E 025°22'3 2.6
2014-Jul-24 07:33N 37°05' E 025°20'1212.1
2014-Jul-24 06:33N 36°54' E 025°27'5 5.1
2014-Jul-24 05:33N 36°55' E 025°33'10 9.8
2014-Jul-24 04:33N 36°52' E 025°45'6 1.8
2014-Jul-24 01:09N 36°50' E 025°52'1 0.1
2014-Jul-23 17:28N 36°50' E 025°51'7 7.5
2014-Jul-23 16:33N 36°54' E 025°58'1212.5
2014-Jul-23 15:33N 37°04' E 025°49'6 5.9
2014-Jul-23 14:33N 37°01' E 025°43'10 9.5
2014-Jul-23 13:33N 36°55' E 025°33'5 4.7
2014-Jul-23 12:32N 36°52' E 025°28'1111.6
2014-Jul-23 11:33N 37°02' E 025°21'5 4.8
2014-Jul-23 10:33N 37°06' E 025°22'0 0.0
2014-Jul-23 09:33N 37°06' E 025°22'9 8.7
2014-Jul-23 08:33N 36°58' E 025°23'8 8.0
2014-Jul-23 07:33N 36°52' E 025°31'6 6.1
2014-Jul-23 06:33N 36°56' E 025°37'1211.8
2014-Jul-23 05:33N 37°05' E 025°46'8 7.8
2014-Jul-23 04:33N 36°60' E 025°54'7 7.0
2014-Jul-23 03:33N 36°52' E 025°54'3 1.5
2014-Jul-23 01:11N 36°50' E 025°52'0 0.0
2014-Jul-23 00:11N 36°50' E 025°52'0 0.0
2014-Jul-22 23:31N 36°50' E 025°52'0 0.0
2014-Jul-22 21:22N 36°50' E 025°52'4 0.6
2014-Jul-22 14:33N 36°51' E 025°47'1010.4
2014-Jul-22 13:33N 36°56' E 025°36'7 7.2
2014-Jul-22 12:33N 36°52' E 025°28'1110.9
2014-Jul-22 11:33N 37°01' E 025°21'5 5.3
2014-Jul-22 10:33N 37°06' E 025°22'0 0.0
2014-Jul-22 09:33N 37°06' E 025°22'0 0.0
2014-Jul-22 08:33N 37°06' E 025°22'4 3.6
2014-Jul-22 07:33N 37°03' E 025°21'1211.9
2014-Jul-22 06:33N 36°53' E 025°28'5 5.4
2014-Jul-22 05:34N 36°55' E 025°34'10 9.8
2014-Jul-22 04:32N 36°52' E 025°46'5 4.8
2014-Jul-22 03:29N 36°50' E 025°52'2 0.2
2014-Jul-21 17:33N 36°51' E 025°50'7 6.6
2014-Jul-21 16:31N 36°56' E 025°55'1211.5
2014-Jul-21 15:30N 37°06' E 025°48'9 9.8
2014-Jul-21 14:32N 36°58' E 025°40'9 8.5
2014-Jul-21 13:32N 36°54' E 025°31'3 3.5
2014-Jul-21 12:33N 36°54' E 025°27'1212.3
2014-Jul-21 11:33N 37°05' E 025°20'3 2.7
2014-Jul-21 10:32N 37°06' E 025°22'0 0.0
2014-Jul-21 09:33N 37°06' E 025°22'6 6.3
2014-Jul-21 08:33N 36°60' E 025°22'10 9.7
2014-Jul-21 07:29N 36°52' E 025°30'6 6.6
2014-Jul-21 06:33N 36°56' E 025°36'1212.1
2014-Jul-21 05:33N 37°05' E 025°46'8 8.1
2014-Jul-21 04:33N 36°59' E 025°54'7 6.5
2014-Jul-21 03:33N 36°52' E 025°54'3 0.3
2014-Jul-20 15:08N 36°50' E 025°52'711.3
2014-Jul-20 14:33N 36°53' E 025°45'10 9.8
2014-Jul-20 13:33N 36°54' E 025°33'1211.5
2014-Jul-20 12:32N 36°49' E 025°20'6 6.4
2014-Jul-20 11:33N 36°43' E 025°16'1110.6
2014-Jul-20 10:34N 36°33' E 025°20'1110.9
2014-Jul-20 09:33N 36°23' E 025°26'9 9.0
2014-Jul-20 08:34N 36°32' E 025°22'1312.6
2014-Jul-20 07:33N 36°43' E 025°29'1212.5
2014-Jul-20 06:34N 36°54' E 025°36'9 8.8
2014-Jul-20 05:33N 36°52' E 025°46'4 0.4
2014-Jul-19 17:29N 36°50' E 025°51'7 7.8
2014-Jul-19 16:33N 36°54' E 025°59'1211.8
2014-Jul-19 15:33N 37°04' E 025°49'6 5.6
2014-Jul-19 14:34N 37°01' E 025°43'9 8.9
2014-Jul-19 13:33N 36°55' E 025°35'6 5.9
2014-Jul-19 12:31N 36°52' E 025°28'1111.6
2014-Jul-19 11:34N 37°01' E 025°21'5 5.0
2014-Jul-19 10:33N 37°06' E 025°22'0 0.0
2014-Jul-19 09:33N 37°06' E 025°22'6 6.1
2014-Jul-19 08:33N 37°00' E 025°22'1010.1
2014-Jul-19 07:33N 36°52' E 025°29'7 7.0
2014-Jul-19 06:33N 36°56' E 025°36'1212.4
2014-Jul-19 05:34N 37°05' E 025°47'8 7.9
2014-Jul-19 04:33N 36°59' E 025°54'7 6.4
2014-Jul-19 03:30N 36°52' E 025°54'  
Track history (hours):
 
Tides and Currents Weather Stations Pressure Air Temp Water Temp Dewpoint Dewpoint Depression Visibility Wind Speed Wind Dir Waves Ship Positions

ExpreSS Skopelitis

Last reported at 2014-Jul-28 17:23 UTC. Time now 2014-Jul-28 18:40 UTC.
Position N 36°50' E 025°51'.

Length 45 m; draft 2.4 m.

Type: Passenger vessel. MMSI: 237029400.

Date/timePositionNaut miles runAvg speedWind from/ knotsBaromVisibWave heightAir tempDewpointWater temp
2014-Jul-28 17:23N 36°50' E 025°51'7 6.7
2014-Jul-28 16:23N 36°55' E 025°57'1012.6
2014-Jul-28 15:33N 37°03' E 025°50'6 5.7
2014-Jul-28 14:33N 37°01' E 025°43'1010.1
2014-Jul-28 13:33N 36°55' E 025°33'5 5.0
2014-Jul-28 12:33N 36°52' E 025°28'1111.5
2014-Jul-28 11:33N 37°02' E 025°21'5 4.8
2014-Jul-28 10:33N 37°06' E 025°22'0 0.0
2014-Jul-28 09:33N 37°06' E 025°22'5 5.1
2014-Jul-28 08:33N 37°01' E 025°21'1110.9
2014-Jul-28 07:33N 36°52' E 025°28'7 7.4
2014-Jul-28 06:33N 36°56' E 025°36'1211.9
2014-Jul-28 05:33N 37°04' E 025°46'8 8.2
2014-Jul-28 04:33N 36°59' E 025°54'7 6.3
2014-Jul-28 03:30N 36°52' E 025°54'5 0.4
2014-Jul-27 14:33N 36°51' E 025°47'1110.9
2014-Jul-27 13:33N 36°55' E 025°35'1211.6
2014-Jul-27 12:33N 36°50' E 025°22'8 8.1
2014-Jul-27 11:33N 36°43' E 025°16'1110.5
2014-Jul-27 10:33N 36°33' E 025°20'1111.0
2014-Jul-27 09:32N 36°23' E 025°26'9 8.7
2014-Jul-27 08:33N 36°31' E 025°23'1212.2
2014-Jul-27 07:33N 36°42' E 025°30'1212.3
2014-Jul-27 06:33N 36°54' E 025°35'8 8.5
2014-Jul-27 05:33N 36°52' E 025°46'4 0.4
2014-Jul-26 17:33N 36°52' E 025°51'5 5.3
2014-Jul-26 16:33N 36°56' E 025°55'1211.3
2014-Jul-26 15:30N 37°06' E 025°48'8 8.4
2014-Jul-26 14:33N 36°59' E 025°42'9 8.9
2014-Jul-26 13:33N 36°54' E 025°33'4 4.0
2014-Jul-26 12:33N 36°53' E 025°28'1211.9
2014-Jul-26 11:33N 37°03' E 025°20'4 3.9
2014-Jul-26 10:33N 37°06' E 025°22'0 0.0
2014-Jul-26 09:33N 37°06' E 025°22'6 5.9
2014-Jul-26 08:33N 37°00' E 025°22'1010.2
2014-Jul-26 07:33N 36°52' E 025°29'7 7.2
2014-Jul-26 06:33N 36°56' E 025°37'1312.6
2014-Jul-26 05:33N 37°05' E 025°47'9 9.1
2014-Jul-26 04:33N 36°58' E 025°54'6 6.1
2014-Jul-26 03:33N 36°52' E 025°54'6 0.5
2014-Jul-25 14:33N 36°51' E 025°46'10 9.5
2014-Jul-25 13:33N 36°55' E 025°35'7 6.6
2014-Jul-25 12:32N 36°52' E 025°28'1111.0
2014-Jul-25 11:33N 37°01' E 025°21'5 5.4
2014-Jul-25 10:33N 37°06' E 025°22'0 0.0
2014-Jul-25 09:33N 37°06' E 025°22'0 0.0
2014-Jul-25 08:33N 37°06' E 025°22'3 3.2
2014-Jul-25 07:33N 37°04' E 025°20'1211.8
2014-Jul-25 06:33N 36°53' E 025°28'5 4.6
2014-Jul-25 05:33N 36°55' E 025°33'1010.0
2014-Jul-25 04:33N 36°52' E 025°45'1 0.1
2014-Jul-24 14:33N 36°52' E 025°46'9 9.5
2014-Jul-24 13:33N 36°55' E 025°35'7 6.7
2014-Jul-24 12:33N 36°52' E 025°28'1111.2
2014-Jul-24 11:33N 37°01' E 025°21'5 5.1
2014-Jul-24 10:33N 37°06' E 025°22'0 0.0
2014-Jul-24 09:33N 37°06' E 025°22'0 0.0
2014-Jul-24 08:33N 37°06' E 025°22'3 2.6
2014-Jul-24 07:33N 37°05' E 025°20'1212.1
2014-Jul-24 06:33N 36°54' E 025°27'5 5.1
2014-Jul-24 05:33N 36°55' E 025°33'10 9.8
2014-Jul-24 04:33N 36°52' E 025°45'6 1.8
2014-Jul-24 01:09N 36°50' E 025°52'1 0.1
2014-Jul-23 17:28N 36°50' E 025°51'7 7.5
2014-Jul-23 16:33N 36°54' E 025°58'1212.5
2014-Jul-23 15:33N 37°04' E 025°49'6 5.9
2014-Jul-23 14:33N 37°01' E 025°43'10 9.5
2014-Jul-23 13:33N 36°55' E 025°33'5 4.7
2014-Jul-23 12:32N 36°52' E 025°28'1111.6
2014-Jul-23 11:33N 37°02' E 025°21'5 4.8
2014-Jul-23 10:33N 37°06' E 025°22'0 0.0
2014-Jul-23 09:33N 37°06' E 025°22'9 8.7
2014-Jul-23 08:33N 36°58' E 025°23'8 8.0
2014-Jul-23 07:33N 36°52' E 025°31'6 6.1
2014-Jul-23 06:33N 36°56' E 025°37'1211.8
2014-Jul-23 05:33N 37°05' E 025°46'8 7.8
2014-Jul-23 04:33N 36°60' E 025°54'7 7.0
2014-Jul-23 03:33N 36°52' E 025°54'3 1.5
2014-Jul-23 01:11N 36°50' E 025°52'0 0.0
2014-Jul-23 00:11N 36°50' E 025°52'0 0.0
2014-Jul-22 23:31N 36°50' E 025°52'0 0.0
2014-Jul-22 21:22N 36°50' E 025°52'4 0.6
2014-Jul-22 14:33N 36°51' E 025°47'1010.4
2014-Jul-22 13:33N 36°56' E 025°36'7 7.2
2014-Jul-22 12:33N 36°52' E 025°28'1110.9
2014-Jul-22 11:33N 37°01' E 025°21'5 5.3
2014-Jul-22 10:33N 37°06' E 025°22'0 0.0
2014-Jul-22 09:33N 37°06' E 025°22'0 0.0
2014-Jul-22 08:33N 37°06' E 025°22'4 3.6
2014-Jul-22 07:33N 37°03' E 025°21'1211.9
2014-Jul-22 06:33N 36°53' E 025°28'5 5.4
2014-Jul-22 05:34N 36°55' E 025°34'10 9.8
2014-Jul-22 04:32N 36°52' E 025°46'5 4.8
2014-Jul-22 03:29N 36°50' E 025°52'2 0.2
2014-Jul-21 17:33N 36°51' E 025°50'7 6.6
2014-Jul-21 16:31N 36°56' E 025°55'1211.5
2014-Jul-21 15:30N 37°06' E 025°48'9 9.8
2014-Jul-21 14:32N 36°58' E 025°40'9 8.5
2014-Jul-21 13:32N 36°54' E 025°31'3 3.5
2014-Jul-21 12:33N 36°54' E 025°27'1212.3
2014-Jul-21 11:33N 37°05' E 025°20'3 2.7
2014-Jul-21 10:32N 37°06' E 025°22'0 0.0
2014-Jul-21 09:33N 37°06' E 025°22'6 6.3
2014-Jul-21 08:33N 36°60' E 025°22'10 9.7
2014-Jul-21 07:29N 36°52' E 025°30'6 6.6
2014-Jul-21 06:33N 36°56' E 025°36'1212.1
2014-Jul-21 05:33N 37°05' E 025°46'8 8.1
2014-Jul-21 04:33N 36°59' E 025°54'7 6.5
2014-Jul-21 03:33N 36°52' E 025°54'3 0.3
2014-Jul-20 15:08N 36°50' E 025°52'711.3
2014-Jul-20 14:33N 36°53' E 025°45'10 9.8
2014-Jul-20 13:33N 36°54' E 025°33'1211.5
2014-Jul-20 12:32N 36°49' E 025°20'6 6.4
2014-Jul-20 11:33N 36°43' E 025°16'1110.6
2014-Jul-20 10:34N 36°33' E 025°20'1110.9
2014-Jul-20 09:33N 36°23' E 025°26'9 9.0
2014-Jul-20 08:34N 36°32' E 025°22'1312.6
2014-Jul-20 07:33N 36°43' E 025°29'1212.5
2014-Jul-20 06:34N 36°54' E 025°36'9 8.8
2014-Jul-20 05:33N 36°52' E 025°46'4 0.4
2014-Jul-19 17:29N 36°50' E 025°51'7 7.8
2014-Jul-19 16:33N 36°54' E 025°59'1211.8
2014-Jul-19 15:33N 37°04' E 025°49'6 5.6
2014-Jul-19 14:34N 37°01' E 025°43'9 8.9
2014-Jul-19 13:33N 36°55' E 025°35'6 5.9
2014-Jul-19 12:31N 36°52' E 025°28'1111.6
2014-Jul-19 11:34N 37°01' E 025°21'5 5.0
2014-Jul-19 10:33N 37°06' E 025°22'0 0.0
2014-Jul-19 09:33N 37°06' E 025°22'6 6.1
2014-Jul-19 08:33N 37°00' E 025°22'1010.1
2014-Jul-19 07:33N 36°52' E 025°29'7 7.0
2014-Jul-19 06:33N 36°56' E 025°36'1212.4
2014-Jul-19 05:34N 37°05' E 025°47'8 7.9
2014-Jul-19 04:33N 36°59' E 025°54'7 6.4
2014-Jul-19 03:30N 36°52' E 025°54'  

Dump ship's entire track history